sensor_id;sensor_type;location;lat;lon;timestamp;pressure;altitude;pressure_sealevel;temperature;humidity
59757;BME280;45631;51.962;5.974;2022-08-03T00:01:43;101394.63;;;21.00;100.00
59757;BME280;45631;51.962;5.974;2022-08-03T00:04:11;101403.63;;;20.99;100.00
59757;BME280;45631;51.962;5.974;2022-08-03T00:06:39;101397.41;;;20.98;100.00
59757;BME280;45631;51.962;5.974;2022-08-03T00:09:07;101389.41;;;20.98;100.00
59757;BME280;45631;51.962;5.974;2022-08-03T00:11:36;101388.34;;;20.91;100.00
59757;BME280;45631;51.962;5.974;2022-08-03T00:14:05;101388.34;;;20.91;100.00
59757;BME280;45631;51.962;5.974;2022-08-03T00:16:35;101388.66;;;20.88;100.00
59757;BME280;45631;51.962;5.974;2022-08-03T00:19:04;101384.31;;;20.87;100.00
59757;BME280;45631;51.962;5.974;2022-08-03T00:21:32;101390.47;;;20.87;100.00
59757;BME280;45631;51.962;5.974;2022-08-03T00:24:00;101390.88;;;20.74;100.00
59757;BME280;45631;51.962;5.974;2022-08-03T00:26:28;101391.09;;;20.63;100.00
59757;BME280;45631;51.962;5.974;2022-08-03T00:28:57;101386.75;;;20.62;100.00
59757;BME280;45631;51.962;5.974;2022-08-03T00:31:25;101378.19;;;20.58;100.00
59757;BME280;45631;51.962;5.974;2022-08-03T00:34:14;101388.13;;;20.66;100.00
59757;BME280;45631;51.962;5.974;2022-08-03T00:36:55;101383.00;;;20.55;100.00
59757;BME280;45631;51.962;5.974;2022-08-03T00:39:23;101386.66;;;20.54;100.00
59757;BME280;45631;51.962;5.974;2022-08-03T00:41:51;101387.25;;;20.48;100.00
59757;BME280;45631;51.962;5.974;2022-08-03T00:44:19;101391.63;;;20.49;100.00
59757;BME280;45631;51.962;5.974;2022-08-03T00:46:47;101390.56;;;20.41;100.00
59757;BME280;45631;51.962;5.974;2022-08-03T00:49:17;101380.84;;;20.40;100.00
59757;BME280;45631;51.962;5.974;2022-08-03T00:51:45;101384.00;;;20.36;100.00
59757;BME280;45631;51.962;5.974;2022-08-03T00:54:14;101384.41;;;20.31;100.00
59757;BME280;45631;51.962;5.974;2022-08-03T00:56:43;101376.72;;;20.28;100.00
59757;BME280;45631;51.962;5.974;2022-08-03T00:59:26;101377.69;;;20.27;100.00
59757;BME280;45631;51.962;5.974;2022-08-03T01:01:54;101372.44;;;20.17;100.00
59757;BME280;45631;51.962;5.974;2022-08-03T01:04:24;101366.25;;;20.17;100.00
59757;BME280;45631;51.962;5.974;2022-08-03T01:07:01;101366.19;;;20.08;100.00
59757;BME280;45631;51.962;5.974;2022-08-03T01:09:41;101371.50;;;20.08;100.00
59757;BME280;45631;51.962;5.974;2022-08-03T01:12:19;101369.13;;;20.05;100.00
59757;BME280;45631;51.962;5.974;2022-08-03T01:14:54;101366.09;;;20.00;100.00
59757;BME280;45631;51.962;5.974;2022-08-03T01:17:30;101356.22;;;20.01;100.00
59757;BME280;45631;51.962;5.974;2022-08-03T01:20:05;101364.47;;;19.89;100.00
59757;BME280;45631;51.962;5.974;2022-08-03T01:22:43;101355.69;;;19.97;100.00
59757;BME280;45631;51.962;5.974;2022-08-03T01:25:27;101366.13;;;19.90;100.00
59757;BME280;45631;51.962;5.974;2022-08-03T01:28:12;101368.13;;;19.79;100.00
59757;BME280;45631;51.962;5.974;2022-08-03T01:30:48;101362.22;;;19.85;100.00
59757;BME280;45631;51.962;5.974;2022-08-03T01:33:21;101363.22;;;19.84;100.00
59757;BME280;45631;51.962;5.974;2022-08-03T01:35:53;101352.53;;;19.74;100.00
59757;BME280;45631;51.962;5.974;2022-08-03T01:38:28;101352.03;;;19.70;100.00
59757;BME280;45631;51.962;5.974;2022-08-03T01:41:02;101357.94;;;19.64;100.00
59757;BME280;45631;51.962;5.974;2022-08-03T01:43:31;101357.34;;;19.70;100.00
59757;BME280;45631;51.962;5.974;2022-08-03T01:46:22;101361.00;;;19.69;100.00
59757;BME280;45631;51.962;5.974;2022-08-03T01:48:52;101364.81;;;19.67;100.00
59757;BME280;45631;51.962;5.974;2022-08-03T01:51:22;101355.41;;;19.63;100.00
59757;BME280;45631;51.962;5.974;2022-08-03T01:54:10;101347.97;;;19.66;100.00
59757;BME280;45631;51.962;5.974;2022-08-03T01:56:41;101347.97;;;19.56;100.00
59757;BME280;45631;51.962;5.974;2022-08-03T01:59:14;101347.88;;;19.58;100.00
59757;BME280;45631;51.962;5.974;2022-08-03T02:01:45;101346.59;;;19.52;100.00
59757;BME280;45631;51.962;5.974;2022-08-03T02:04:34;101348.72;;;19.49;100.00
59757;BME280;45631;51.962;5.974;2022-08-03T02:07:05;101336.94;;;19.51;100.00
59757;BME280;45631;51.962;5.974;2022-08-03T02:09:37;101339.19;;;19.46;100.00
59757;BME280;45631;51.962;5.974;2022-08-03T02:12:07;101343.59;;;19.37;100.00
59757;BME280;45631;51.962;5.974;2022-08-03T02:14:37;101349.19;;;19.34;100.00
59757;BME280;45631;51.962;5.974;2022-08-03T02:17:08;101346.50;;;19.44;100.00
59757;BME280;45631;51.962;5.974;2022-08-03T02:19:37;101345.50;;;19.45;100.00
59757;BME280;45631;51.962;5.974;2022-08-03T02:22:09;101344.41;;;19.38;100.00
59757;BME280;45631;51.962;5.974;2022-08-03T02:24:39;101340.78;;;19.39;100.00
59757;BME280;45631;51.962;5.974;2022-08-03T02:27:17;101348.50;;;19.32;100.00
59757;BME280;45631;51.962;5.974;2022-08-03T02:29:52;101353.84;;;19.32;100.00
59757;BME280;45631;51.962;5.974;2022-08-03T02:32:28;101348.09;;;19.27;100.00
59757;BME280;45631;51.962;5.974;2022-08-03T02:34:58;101344.03;;;19.23;100.00
59757;BME280;45631;51.962;5.974;2022-08-03T02:37:31;101344.19;;;19.21;100.00
59757;BME280;45631;51.962;5.974;2022-08-03T02:40:03;101339.69;;;19.22;100.00
59757;BME280;45631;51.962;5.974;2022-08-03T02:42:34;101337.44;;;19.27;100.00
59757;BME280;45631;51.962;5.974;2022-08-03T02:45:07;101340.28;;;19.16;100.00
59757;BME280;45631;51.962;5.974;2022-08-03T02:47:40;101331.28;;;19.17;100.00
59757;BME280;45631;51.962;5.974;2022-08-03T02:50:21;101334.69;;;19.09;100.00
59757;BME280;45631;51.962;5.974;2022-08-03T02:52:52;101333.84;;;18.99;100.00
59757;BME280;45631;51.962;5.974;2022-08-03T02:55:23;101330.66;;;18.95;100.00
59757;BME280;45631;51.962;5.974;2022-08-03T02:57:53;101331.34;;;18.97;100.00
59757;BME280;45631;51.962;5.974;2022-08-03T03:00:27;101332.03;;;19.09;100.00
59757;BME280;45631;51.962;5.974;2022-08-03T03:03:01;101322.06;;;19.01;100.00
59757;BME280;45631;51.962;5.974;2022-08-03T03:05:32;101326.00;;;18.97;100.00
59757;BME280;45631;51.962;5.974;2022-08-03T03:08:20;101327.13;;;18.95;100.00
59757;BME280;45631;51.962;5.974;2022-08-03T03:10:55;101326.69;;;18.89;100.00
59757;BME280;45631;51.962;5.974;2022-08-03T03:13:26;101335.25;;;18.83;100.00
59757;BME280;45631;51.962;5.974;2022-08-03T03:15:56;101324.31;;;18.86;100.00
59757;BME280;45631;51.962;5.974;2022-08-03T03:18:28;101328.81;;;18.76;100.00
59757;BME280;45631;51.962;5.974;2022-08-03T03:20:59;101327.66;;;18.79;100.00
59757;BME280;45631;51.962;5.974;2022-08-03T03:23:28;101330.78;;;18.74;100.00
59757;BME280;45631;51.962;5.974;2022-08-03T03:25:59;101330.78;;;18.74;100.00
59757;BME280;45631;51.962;5.974;2022-08-03T03:28:28;101331.59;;;18.74;100.00
59757;BME280;45631;51.962;5.974;2022-08-03T03:30:57;101324.88;;;18.80;100.00
59757;BME280;45631;51.962;5.974;2022-08-03T03:33:26;101324.63;;;18.73;100.00
59757;BME280;45631;51.962;5.974;2022-08-03T03:35:56;101322.78;;;18.74;100.00
59757;BME280;45631;51.962;5.974;2022-08-03T03:38:25;101325.88;;;18.69;100.00
59757;BME280;45631;51.962;5.974;2022-08-03T03:40:53;101314.22;;;18.61;100.00
59757;BME280;45631;51.962;5.974;2022-08-03T03:43:22;101323.34;;;18.58;100.00
59757;BME280;45631;51.962;5.974;2022-08-03T03:45:51;101318.44;;;18.53;100.00
59757;BME280;45631;51.962;5.974;2022-08-03T03:48:19;101321.78;;;18.55;100.00
59757;BME280;45631;51.962;5.974;2022-08-03T03:50:48;101324.59;;;18.54;100.00
59757;BME280;45631;51.962;5.974;2022-08-03T03:53:18;101322.38;;;18.59;100.00
59757;BME280;45631;51.962;5.974;2022-08-03T03:55:46;101324.34;;;18.57;100.00
59757;BME280;45631;51.962;5.974;2022-08-03T03:58:29;101326.88;;;18.49;100.00
59757;BME280;45631;51.962;5.974;2022-08-03T04:00:58;101331.63;;;18.45;100.00
59757;BME280;45631;51.962;5.974;2022-08-03T04:03:26;101326.31;;;18.45;100.00
59757;BME280;45631;51.962;5.974;2022-08-03T04:05:54;101326.00;;;18.38;100.00
59757;BME280;45631;51.962;5.974;2022-08-03T04:08:42;101324.31;;;18.37;100.00
59757;BME280;45631;51.962;5.974;2022-08-03T04:11:32;101326.84;;;18.39;100.00
59757;BME280;45631;51.962;5.974;2022-08-03T04:14:06;101325.44;;;18.45;100.00
59757;BME280;45631;51.962;5.974;2022-08-03T04:16:36;101325.72;;;18.41;100.00
59757;BME280;45631;51.962;5.974;2022-08-03T04:19:13;101325.59;;;18.43;100.00
59757;BME280;45631;51.962;5.974;2022-08-03T04:21:51;101336.38;;;18.41;100.00
59757;BME280;45631;51.962;5.974;2022-08-03T04:24:27;101330.91;;;18.43;100.00
59757;BME280;45631;51.962;5.974;2022-08-03T04:26:58;101331.78;;;18.44;100.00
59757;BME280;45631;51.962;5.974;2022-08-03T04:29:29;101332.75;;;18.42;100.00
59757;BME280;45631;51.962;5.974;2022-08-03T04:32:00;101328.81;;;18.47;100.00
59757;BME280;45631;51.962;5.974;2022-08-03T04:34:29;101328.25;;;18.43;100.00
59757;BME280;45631;51.962;5.974;2022-08-03T04:36:59;101332.59;;;18.44;100.00
59757;BME280;45631;51.962;5.974;2022-08-03T04:39:31;101334.88;;;18.49;100.00
59757;BME280;45631;51.962;5.974;2022-08-03T04:42:02;101340.03;;;18.50;100.00
59757;BME280;45631;51.962;5.974;2022-08-03T04:44:35;101336.13;;;18.54;100.00
59757;BME280;45631;51.962;5.974;2022-08-03T04:47:04;101332.72;;;18.62;100.00
59757;BME280;45631;51.962;5.974;2022-08-03T04:49:34;101330.22;;;18.61;100.00
59757;BME280;45631;51.962;5.974;2022-08-03T04:52:03;101324.75;;;18.62;100.00
59757;BME280;45631;51.962;5.974;2022-08-03T04:54:40;101345.06;;;18.63;100.00
59757;BME280;45631;51.962;5.974;2022-08-03T04:57:16;101331.63;;;18.65;100.00
59757;BME280;45631;51.962;5.974;2022-08-03T04:59:49;101341.97;;;18.68;100.00
59757;BME280;45631;51.962;5.974;2022-08-03T05:02:28;101346.75;;;18.74;100.00
59757;BME280;45631;51.962;5.974;2022-08-03T05:04:57;101346.31;;;18.79;100.00
59757;BME280;45631;51.962;5.974;2022-08-03T05:07:25;101348.03;;;18.89;100.00
59757;BME280;45631;51.962;5.974;2022-08-03T05:10:05;101344.78;;;18.86;100.00
59757;BME280;45631;51.962;5.974;2022-08-03T05:12:41;101342.69;;;18.89;100.00
59757;BME280;45631;51.962;5.974;2022-08-03T05:15:10;101343.41;;;18.91;100.00
59757;BME280;45631;51.962;5.974;2022-08-03T05:17:38;101351.09;;;18.95;100.00
59757;BME280;45631;51.962;5.974;2022-08-03T05:20:08;101347.31;;;18.97;100.00
59757;BME280;45631;51.962;5.974;2022-08-03T05:22:36;101349.69;;;19.00;100.00
59757;BME280;45631;51.962;5.974;2022-08-03T05:25:06;101353.75;;;19.04;100.00
59757;BME280;45631;51.962;5.974;2022-08-03T05:27:34;101354.31;;;19.08;100.00
59757;BME280;45631;51.962;5.974;2022-08-03T05:30:03;101357.25;;;19.15;100.00
59757;BME280;45631;51.962;5.974;2022-08-03T05:32:51;101352.59;;;19.17;100.00
59757;BME280;45631;51.962;5.974;2022-08-03T05:35:20;101360.72;;;19.25;100.00
59757;BME280;45631;51.962;5.974;2022-08-03T05:38:10;101355.81;;;19.30;100.00
59757;BME280;45631;51.962;5.974;2022-08-03T05:40:51;101354.94;;;19.39;100.00
59757;BME280;45631;51.962;5.974;2022-08-03T05:43:23;101355.03;;;19.48;100.00
59757;BME280;45631;51.962;5.974;2022-08-03T05:45:51;101358.81;;;19.55;100.00
59757;BME280;45631;51.962;5.974;2022-08-03T05:48:38;101355.41;;;19.63;100.00
59757;BME280;45631;51.962;5.974;2022-08-03T05:51:06;101352.69;;;19.72;100.00
59757;BME280;45631;51.962;5.974;2022-08-03T05:53:37;101359.84;;;19.82;100.00
59757;BME280;45631;51.962;5.974;2022-08-03T05:56:07;101355.44;;;19.90;100.00
59757;BME280;45631;51.962;5.974;2022-08-03T05:58:41;101360.75;;;20.00;100.00
59757;BME280;45631;51.962;5.974;2022-08-03T06:01:10;101360.84;;;20.08;100.00
59757;BME280;45631;51.962;5.974;2022-08-03T06:03:38;101365.25;;;20.18;100.00
59757;BME280;45631;51.962;5.974;2022-08-03T06:06:06;101362.53;;;20.27;100.00
59757;BME280;45631;51.962;5.974;2022-08-03T06:08:34;101359.94;;;20.36;100.00
59757;BME280;45631;51.962;5.974;2022-08-03T06:11:02;101371.22;;;20.48;100.00
59757;BME280;45631;51.962;5.974;2022-08-03T06:13:32;101374.53;;;20.59;100.00
59757;BME280;45631;51.962;5.974;2022-08-03T06:16:00;101369.50;;;20.74;100.00
59757;BME280;45631;51.962;5.974;2022-08-03T06:18:28;101376.28;;;20.87;100.00
59757;BME280;45631;51.962;5.974;2022-08-03T06:20:56;101365.22;;;21.00;100.00
59757;BME280;45631;51.962;5.974;2022-08-03T06:23:42;101376.19;;;21.15;100.00
59757;BME280;45631;51.962;5.974;2022-08-03T06:26:20;101376.56;;;21.28;100.00
59757;BME280;45631;51.962;5.974;2022-08-03T06:28:50;101380.00;;;21.38;100.00
59757;BME280;45631;51.962;5.974;2022-08-03T06:31:21;101379.88;;;21.48;100.00
59757;BME280;45631;51.962;5.974;2022-08-03T06:33:49;101379.78;;;21.58;100.00
59757;BME280;45631;51.962;5.974;2022-08-03T06:36:38;101375.84;;;21.70;100.00
59757;BME280;45631;51.962;5.974;2022-08-03T06:39:06;101388.94;;;21.82;100.00
59757;BME280;45631;51.962;5.974;2022-08-03T06:41:34;101386.31;;;21.90;100.00
59757;BME280;45631;51.962;5.974;2022-08-03T06:44:11;101391.34;;;22.01;100.00
59757;BME280;45631;51.962;5.974;2022-08-03T06:46:39;101386.19;;;22.08;100.00
59757;BME280;45631;51.962;5.974;2022-08-03T06:49:08;101395.44;;;22.22;100.00
59757;BME280;45631;51.962;5.974;2022-08-03T06:51:37;101391.63;;;22.33;99.62
59757;BME280;45631;51.962;5.974;2022-08-03T06:54:25;101391.66;;;22.49;97.39
59757;BME280;45631;51.962;5.974;2022-08-03T06:56:58;101395.03;;;22.51;96.47
59757;BME280;45631;51.962;5.974;2022-08-03T06:59:28;101388.81;;;22.59;96.65
59757;BME280;45631;51.962;5.974;2022-08-03T07:02:16;101389.88;;;22.66;96.28
59757;BME280;45631;51.962;5.974;2022-08-03T07:04:46;101385.66;;;22.80;95.19
59757;BME280;45631;51.962;5.974;2022-08-03T07:07:14;101392.03;;;22.95;93.31
59757;BME280;45631;51.962;5.974;2022-08-03T07:09:43;101388.16;;;23.06;93.07
59757;BME280;45631;51.962;5.974;2022-08-03T07:12:23;101389.84;;;23.24;93.30
59757;BME280;45631;51.962;5.974;2022-08-03T07:14:53;101383.13;;;23.36;90.36
59757;BME280;45631;51.962;5.974;2022-08-03T07:17:26;101385.63;;;23.38;89.27
59757;BME280;45631;51.962;5.974;2022-08-03T07:19:54;101394.13;;;23.58;90.19
59757;BME280;45631;51.962;5.974;2022-08-03T07:22:23;101389.56;;;23.67;88.33
59757;BME280;45631;51.962;5.974;2022-08-03T07:27:18;101387.84;;;23.90;86.98
59757;BME280;45631;51.962;5.974;2022-08-03T07:29:47;101390.25;;;24.08;85.98
59757;BME280;45631;51.962;5.974;2022-08-03T07:32:16;101392.53;;;24.20;83.74
59757;BME280;45631;51.962;5.974;2022-08-03T07:34:45;101392.53;;;24.20;83.56
59757;BME280;45631;51.962;5.974;2022-08-03T07:37:13;101389.16;;;24.26;82.71
59757;BME280;45631;51.962;5.974;2022-08-03T07:39:41;101388.56;;;24.39;82.62
59757;BME280;45631;51.962;5.974;2022-08-03T07:42:09;101391.97;;;24.64;81.49
59757;BME280;45631;51.962;5.974;2022-08-03T07:44:39;101390.69;;;24.75;83.09
59757;BME280;45631;51.962;5.974;2022-08-03T07:47:07;101388.06;;;24.90;81.32
59757;BME280;45631;51.962;5.974;2022-08-03T07:49:49;101391.03;;;25.10;80.75
59757;BME280;45631;51.962;5.974;2022-08-03T07:52:17;101396.94;;;25.28;80.50
59757;BME280;45631;51.962;5.974;2022-08-03T07:55:04;101392.97;;;25.54;78.22
59757;BME280;45631;51.962;5.974;2022-08-03T07:57:33;101390.91;;;25.56;75.69
59757;BME280;45631;51.962;5.974;2022-08-03T08:00:04;101391.19;;;25.76;76.10
59757;BME280;45631;51.962;5.974;2022-08-03T08:02:33;101389.06;;;25.87;75.05
59757;BME280;45631;51.962;5.974;2022-08-03T08:05:03;101395.44;;;26.01;75.31
59757;BME280;45631;51.962;5.974;2022-08-03T08:07:31;101391.97;;;26.22;74.55
59757;BME280;45631;51.962;5.974;2022-08-03T08:10:00;101396.72;;;26.20;73.09
59757;BME280;45631;51.962;5.974;2022-08-03T08:12:27;101396.41;;;26.29;73.02
59757;BME280;45631;51.962;5.974;2022-08-03T08:14:56;101401.13;;;26.42;71.56
59757;BME280;45631;51.962;5.974;2022-08-03T08:17:24;101394.63;;;26.58;70.69
59757;BME280;45631;51.962;5.974;2022-08-03T08:19:52;101395.16;;;26.47;69.28
59757;BME280;45631;51.962;5.974;2022-08-03T08:22:22;101391.22;;;26.49;69.31
59757;BME280;45631;51.962;5.974;2022-08-03T08:24:57;101390.84;;;26.53;68.36
59757;BME280;45631;51.962;5.974;2022-08-03T08:27:27;101397.34;;;26.80;69.13
59757;BME280;45631;51.962;5.974;2022-08-03T08:30:17;101396.25;;;26.96;68.82
59757;BME280;45631;51.962;5.974;2022-08-03T08:32:46;101394.03;;;26.78;67.35
59757;BME280;45631;51.962;5.974;2022-08-03T08:35:15;101397.03;;;27.18;67.38
59757;BME280;45631;51.962;5.974;2022-08-03T08:37:45;101401.50;;;27.32;64.84
59757;BME280;45631;51.962;5.974;2022-08-03T08:40:19;101389.94;;;27.45;64.01
59757;BME280;45631;51.962;5.974;2022-08-03T08:42:48;101392.72;;;27.59;63.33
59757;BME280;45631;51.962;5.974;2022-08-03T08:45:25;101386.59;;;27.85;62.74
59757;BME280;45631;51.962;5.974;2022-08-03T08:47:54;101381.72;;;28.02;62.83
59757;BME280;45631;51.962;5.974;2022-08-03T08:50:29;101386.31;;;28.15;63.36
59757;BME280;45631;51.962;5.974;2022-08-03T08:53:01;101389.53;;;28.39;61.14
59757;BME280;45631;51.962;5.974;2022-08-03T08:55:30;101392.25;;;28.65;59.88
59757;BME280;45631;51.962;5.974;2022-08-03T08:58:21;101399.56;;;28.78;58.86
59757;BME280;45631;51.962;5.974;2022-08-03T09:00:50;101396.03;;;28.91;58.75
59757;BME280;45631;51.962;5.974;2022-08-03T09:03:18;101394.97;;;28.99;57.82
59757;BME280;45631;51.962;5.974;2022-08-03T09:05:58;101392.88;;;29.01;57.90
59757;BME280;45631;51.962;5.974;2022-08-03T09:08:30;101389.16;;;29.29;56.96
59757;BME280;45631;51.962;5.974;2022-08-03T09:10:58;101394.50;;;29.42;55.59
59757;BME280;45631;51.962;5.974;2022-08-03T09:13:27;101391.63;;;29.44;55.52
59757;BME280;45631;51.962;5.974;2022-08-03T09:16:12;101388.22;;;29.62;53.74
59757;BME280;45631;51.962;5.974;2022-08-03T09:18:41;101388.59;;;29.65;54.04
59757;BME280;45631;51.962;5.974;2022-08-03T09:21:19;101390.19;;;29.93;53.53
59757;BME280;45631;51.962;5.974;2022-08-03T09:24:01;101384.88;;;29.60;52.61
59757;BME280;45631;51.962;5.974;2022-08-03T09:26:36;101383.75;;;29.81;53.20
59757;BME280;45631;51.962;5.974;2022-08-03T09:29:05;101377.75;;;29.65;52.64
59757;BME280;45631;51.962;5.974;2022-08-03T09:31:41;101387.06;;;29.83;52.52
59757;BME280;45631;51.962;5.974;2022-08-03T09:34:12;101386.47;;;29.88;51.19
59757;BME280;45631;51.962;5.974;2022-08-03T09:36:41;101383.75;;;29.88;52.29
59757;BME280;45631;51.962;5.974;2022-08-03T09:39:13;101389.53;;;29.98;50.98
59757;BME280;45631;51.962;5.974;2022-08-03T09:41:42;101385.94;;;30.11;50.92
59757;BME280;45631;51.962;5.974;2022-08-03T09:44:11;101394.53;;;30.40;50.56
59757;BME280;45631;51.962;5.974;2022-08-03T09:46:54;101392.03;;;30.45;48.73
59757;BME280;45631;51.962;5.974;2022-08-03T09:49:23;101389.09;;;30.72;49.33
59757;BME280;45631;51.962;5.974;2022-08-03T09:51:52;101382.22;;;30.94;49.13
59757;BME280;45631;51.962;5.974;2022-08-03T09:54:42;101385.88;;;31.07;48.61
59757;BME280;45631;51.962;5.974;2022-08-03T09:57:21;101385.69;;;31.01;47.79
59757;BME280;45631;51.962;5.974;2022-08-03T09:59:50;101397.97;;;31.11;46.94
59757;BME280;45631;51.962;5.974;2022-08-03T10:02:30;101393.72;;;31.40;48.06
59757;BME280;45631;51.962;5.974;2022-08-03T10:04:59;101395.44;;;31.53;47.50
59757;BME280;45631;51.962;5.974;2022-08-03T10:07:27;101394.56;;;31.59;45.94
59757;BME280;45631;51.962;5.974;2022-08-03T10:09:57;101390.59;;;31.74;46.42
59757;BME280;45631;51.962;5.974;2022-08-03T10:12:46;101385.72;;;32.13;45.08
59757;BME280;45631;51.962;5.974;2022-08-03T10:15:15;101388.03;;;32.28;43.53
59757;BME280;45631;51.962;5.974;2022-08-03T10:18:03;101382.66;;;32.63;44.86
59757;BME280;45631;51.962;5.974;2022-08-03T10:20:36;101379.84;;;32.94;43.27
59757;BME280;45631;51.962;5.974;2022-08-03T10:23:07;101382.69;;;33.23;41.39
59757;BME280;45631;51.962;5.974;2022-08-03T10:25:38;101381.63;;;32.76;41.72
59757;BME280;45631;51.962;5.974;2022-08-03T10:28:12;101376.53;;;33.15;43.27
59757;BME280;45631;51.962;5.974;2022-08-03T10:30:43;101371.66;;;33.41;41.07
59757;BME280;45631;51.962;5.974;2022-08-03T10:33:18;101375.94;;;33.49;42.90
59757;BME280;45631;51.962;5.974;2022-08-03T10:36:06;101371.78;;;33.46;41.01
59757;BME280;45631;51.962;5.974;2022-08-03T10:38:38;101370.78;;;33.64;40.74
59757;BME280;45631;51.962;5.974;2022-08-03T10:41:09;101361.97;;;33.33;40.04
59757;BME280;45631;51.962;5.974;2022-08-03T10:43:44;101359.06;;;33.64;41.08
59757;BME280;45631;51.962;5.974;2022-08-03T10:46:17;101362.88;;;33.92;39.55
59757;BME280;45631;51.962;5.974;2022-08-03T10:48:47;101361.41;;;34.30;39.61
59757;BME280;45631;51.962;5.974;2022-08-03T10:51:18;101360.34;;;34.65;39.45
59757;BME280;45631;51.962;5.974;2022-08-03T10:53:46;101355.78;;;34.53;37.24
59757;BME280;45631;51.962;5.974;2022-08-03T10:56:41;101359.09;;;34.56;37.65
59757;BME280;45631;51.962;5.974;2022-08-03T10:59:56;101350.56;;;34.86;36.52
59757;BME280;45631;51.962;5.974;2022-08-03T11:03:08;101355.41;;;35.01;36.79
59757;BME280;45631;51.962;5.974;2022-08-03T11:05:39;101352.31;;;35.14;36.40
59757;BME280;45631;51.962;5.974;2022-08-03T11:13:58;101337.09;;;35.63;33.99
59757;BME280;45631;51.962;5.974;2022-08-03T11:16:29;101327.66;;;35.76;34.08
59757;BME280;45631;51.962;5.974;2022-08-03T11:19:00;101334.69;;;35.94;34.36
59757;BME280;45631;51.962;5.974;2022-08-03T11:21:57;101337.09;;;35.63;35.98
59757;BME280;45631;51.962;5.974;2022-08-03T11:24:59;101341.34;;;36.03;34.26
59757;BME280;45631;51.962;5.974;2022-08-03T11:27:29;101336.31;;;36.22;34.47
59757;BME280;45631;51.962;5.974;2022-08-03T11:30:01;101333.78;;;36.15;32.56
59757;BME280;45631;51.962;5.974;2022-08-03T11:32:58;101324.94;;;36.03;33.02
59757;BME280;45631;51.962;5.974;2022-08-03T11:35:29;101321.09;;;35.77;33.01
59757;BME280;45631;51.962;5.974;2022-08-03T11:38:05;101322.75;;;36.05;32.58
59757;BME280;45631;51.962;5.974;2022-08-03T11:40:35;101317.28;;;36.37;32.68
59757;BME280;45631;51.962;5.974;2022-08-03T11:43:05;101327.47;;;36.42;32.20
59757;BME280;45631;51.962;5.974;2022-08-03T11:45:36;101331.47;;;36.67;32.37
59757;BME280;45631;51.962;5.974;2022-08-03T11:48:15;101327.66;;;36.73;32.28
59757;BME280;45631;51.962;5.974;2022-08-03T11:50:43;101325.09;;;36.24;30.65
59757;BME280;45631;51.962;5.974;2022-08-03T11:53:15;101336.69;;;36.03;32.07
59757;BME280;45631;51.962;5.974;2022-08-03T11:55:47;101339.75;;;36.77;31.55
59757;BME280;45631;51.962;5.974;2022-08-03T11:58:17;101336.34;;;37.02;29.67
59757;BME280;45631;51.962;5.974;2022-08-03T12:01:07;101339.19;;;37.23;31.05
59757;BME280;45631;51.962;5.974;2022-08-03T12:03:37;101345.59;;;37.39;29.61
59757;BME280;45631;51.962;5.974;2022-08-03T12:06:09;101343.72;;;37.50;31.26
59757;BME280;45631;51.962;5.974;2022-08-03T12:08:38;101347.81;;;37.47;29.55
59757;BME280;45631;51.962;5.974;2022-08-03T12:11:08;101343.41;;;37.41;28.82
59757;BME280;45631;51.962;5.974;2022-08-03T12:13:38;101342.06;;;37.59;29.93
59757;BME280;45631;51.962;5.974;2022-08-03T12:16:28;101342.44;;;37.88;29.84
59757;BME280;45631;51.962;5.974;2022-08-03T12:18:57;101344.91;;;37.90;28.73
59757;BME280;45631;51.962;5.974;2022-08-03T12:21:26;101340.25;;;37.80;27.80
59757;BME280;45631;51.962;5.974;2022-08-03T12:23:58;101338.91;;;38.09;27.57
59757;BME280;45631;51.962;5.974;2022-08-03T12:26:26;101334.16;;;37.73;27.89
59757;BME280;45631;51.962;5.974;2022-08-03T12:28:55;101342.50;;;38.40;27.79
59757;BME280;45631;51.962;5.974;2022-08-03T12:31:23;101341.59;;;37.78;27.25
59757;BME280;45631;51.962;5.974;2022-08-03T12:33:59;101343.47;;;37.57;28.02
59757;BME280;45631;51.962;5.974;2022-08-03T12:36:29;101338.91;;;38.39;28.73
59757;BME280;45631;51.962;5.974;2022-08-03T12:38:59;101340.00;;;38.59;28.20
59757;BME280;45631;51.962;5.974;2022-08-03T12:41:29;101340.25;;;38.63;27.00
59757;BME280;45631;51.962;5.974;2022-08-03T12:44:00;101335.88;;;38.57;27.21
59757;BME280;45631;51.962;5.974;2022-08-03T12:46:31;101333.00;;;37.53;27.40
59757;BME280;45631;51.962;5.974;2022-08-03T12:49:05;101338.34;;;37.96;27.42
59757;BME280;45631;51.962;5.974;2022-08-03T12:51:35;101344.34;;;37.78;27.17
59757;BME280;45631;51.962;5.974;2022-08-03T12:54:04;101336.41;;;37.92;27.70
59757;BME280;45631;51.962;5.974;2022-08-03T12:56:33;101346.06;;;38.30;27.44
59757;BME280;45631;51.962;5.974;2022-08-03T12:59:25;101336.69;;;38.67;25.77
59757;BME280;45631;51.962;5.974;2022-08-03T13:02:01;101339.97;;;38.02;27.87
59757;BME280;45631;51.962;5.974;2022-08-03T13:04:36;101343.56;;;38.54;27.51
59757;BME280;45631;51.962;5.974;2022-08-03T13:07:06;101340.72;;;39.01;26.31
59757;BME280;45631;51.962;5.974;2022-08-03T13:09:41;101341.56;;;39.07;26.10
59757;BME280;45631;51.962;5.974;2022-08-03T13:12:11;101338.09;;;38.70;25.94
59757;BME280;45631;51.962;5.974;2022-08-03T13:14:40;101331.50;;;38.40;25.37
59757;BME280;45631;51.962;5.974;2022-08-03T13:17:08;101329.53;;;38.66;25.76
59757;BME280;45631;51.962;5.974;2022-08-03T13:19:38;101329.19;;;38.99;25.80
59757;BME280;45631;51.962;5.974;2022-08-03T13:22:10;101324.88;;;38.82;26.30
59757;BME280;45631;51.962;5.974;2022-08-03T13:24:39;101330.91;;;38.64;25.28